<?xml version="1.0" encoding="UTF-8" standalone="no" ?>
<gpx xmlns="http://www.topografix.com/GPX/1/1" xmlns:xsi="http://www.w3.org/2001/XMLSchema-instance" xsi:schemaLocation="http://www.topografix.com/GPX/1/1 http://www.topografix.com/GPX/1/1/gpx.xsd" version="1.1" creator="VisuGPX - https://www.visugpx.com">
  <metadata>
    <name>6 jours en Margeride</name>
    <desc><![CDATA[6 jours en Margeride]]></desc>
  </metadata>
  <trk>
    <name><![CDATA[J 6 Les Salles - Chateauneuf]]></name>
    <trkseg>
      <trkpt lat="44.76654" lon="3.69953">
        <ele>1120</ele>
        <time>2013-05-21T08:21:33Z</time>
      </trkpt>
      <trkpt lat="44.76654" lon="3.69953">
        <ele>1119</ele>
        <time>2013-05-21T08:21:34Z</time>
      </trkpt>
      <trkpt lat="44.76617" lon="3.69916">
        <ele>1122</ele>
        <time>2013-05-21T08:37:53Z</time>
      </trkpt>
      <trkpt lat="44.76569" lon="3.69822">
        <ele>1129</ele>
        <time>2013-05-21T08:38:50Z</time>
      </trkpt>
      <trkpt lat="44.76531" lon="3.69796">
        <ele>1134</ele>
        <time>2013-05-21T08:39:50Z</time>
      </trkpt>
      <trkpt lat="44.7652" lon="3.69773">
        <ele>1138</ele>
        <time>2013-05-21T08:39:51Z</time>
      </trkpt>
      <trkpt lat="44.76485" lon="3.69692">
        <ele>1149</ele>
        <time>2013-05-21T08:41:21Z</time>
      </trkpt>
      <trkpt lat="44.76483" lon="3.69688">
        <ele>1149</ele>
        <time>2013-05-21T08:41:22Z</time>
      </trkpt>
      <trkpt lat="44.7644" lon="3.69589">
        <ele>1156</ele>
        <time>2013-05-21T08:43:16Z</time>
      </trkpt>
      <trkpt lat="44.76439" lon="3.69584">
        <ele>1156</ele>
        <time>2013-05-21T08:43:17Z</time>
      </trkpt>
      <trkpt lat="44.76414" lon="3.69475">
        <ele>1160</ele>
        <time>2013-05-21T08:44:24Z</time>
      </trkpt>
      <trkpt lat="44.76413" lon="3.69469">
        <ele>1159</ele>
        <time>2013-05-21T08:44:25Z</time>
      </trkpt>
      <trkpt lat="44.76387" lon="3.69355">
        <ele>1164</ele>
        <time>2013-05-21T08:44:56Z</time>
      </trkpt>
      <trkpt lat="44.76366" lon="3.693">
        <ele>1165</ele>
        <time>2013-05-21T08:45:30Z</time>
      </trkpt>
      <trkpt lat="44.76365" lon="3.69297">
        <ele>1165</ele>
        <time>2013-05-21T08:45:31Z</time>
      </trkpt>
      <trkpt lat="44.76302" lon="3.69219">
        <ele>1171</ele>
        <time>2013-05-21T08:46:29Z</time>
      </trkpt>
      <trkpt lat="44.76265" lon="3.69186">
        <ele>1174</ele>
        <time>2013-05-21T08:46:57Z</time>
      </trkpt>
      <trkpt lat="44.76264" lon="3.69185">
        <ele>1174</ele>
        <time>2013-05-21T08:46:58Z</time>
      </trkpt>
      <trkpt lat="44.76207" lon="3.69116">
        <ele>1175</ele>
        <time>2013-05-21T08:48:13Z</time>
      </trkpt>
      <trkpt lat="44.7619" lon="3.69088">
        <ele>1176</ele>
        <time>2013-05-21T08:48:14Z</time>
      </trkpt>
      <trkpt lat="44.76158" lon="3.69026">
        <ele>1180</ele>
        <time>2013-05-21T08:48:58Z</time>
      </trkpt>
      <trkpt lat="44.76132" lon="3.68978">
        <ele>1180</ele>
        <time>2013-05-21T08:49:45Z</time>
      </trkpt>
      <trkpt lat="44.76129" lon="3.68974">
        <ele>1180</ele>
        <time>2013-05-21T08:49:46Z</time>
      </trkpt>
      <trkpt lat="44.76089" lon="3.68901">
        <ele>1180</ele>
        <time>2013-05-21T08:50:13Z</time>
      </trkpt>
      <trkpt lat="44.76046" lon="3.68891">
        <ele>1182</ele>
        <time>2013-05-21T08:50:39Z</time>
      </trkpt>
      <trkpt lat="44.76003" lon="3.68882">
        <ele>1185</ele>
        <time>2013-05-21T08:51:34Z</time>
      </trkpt>
      <trkpt lat="44.75967" lon="3.68874">
        <ele>1186</ele>
        <time>2013-05-21T08:51:35Z</time>
      </trkpt>
      <trkpt lat="44.75918" lon="3.68865">
        <ele>1189</ele>
        <time>2013-05-21T08:52:09Z</time>
      </trkpt>
      <trkpt lat="44.75901" lon="3.68862">
        <ele>1190</ele>
        <time>2013-05-21T08:52:43Z</time>
      </trkpt>
      <trkpt lat="44.75865" lon="3.68851">
        <ele>1191</ele>
        <time>2013-05-21T08:52:44Z</time>
      </trkpt>
      <trkpt lat="44.75813" lon="3.68847">
        <ele>1196</ele>
        <time>2013-05-21T08:53:23Z</time>
      </trkpt>
      <trkpt lat="44.75768" lon="3.68852">
        <ele>1198</ele>
        <time>2013-05-21T08:53:54Z</time>
      </trkpt>
      <trkpt lat="44.75767" lon="3.68852">
        <ele>1198</ele>
        <time>2013-05-21T08:53:55Z</time>
      </trkpt>
      <trkpt lat="44.75707" lon="3.68872">
        <ele>1203</ele>
        <time>2013-05-21T08:55:05Z</time>
      </trkpt>
      <trkpt lat="44.75673" lon="3.6889">
        <ele>1206</ele>
        <time>2013-05-21T08:55:06Z</time>
      </trkpt>
      <trkpt lat="44.7563" lon="3.68915">
        <ele>1210</ele>
        <time>2013-05-21T08:56:11Z</time>
      </trkpt>
      <trkpt lat="44.75597" lon="3.68935">
        <ele>1216</ele>
        <time>2013-05-21T08:56:12Z</time>
      </trkpt>
      <trkpt lat="44.75576" lon="3.68946">
        <ele>1215</ele>
        <time>2013-05-21T08:56:51Z</time>
      </trkpt>
      <trkpt lat="44.75534" lon="3.68967">
        <ele>1216</ele>
        <time>2013-05-21T08:57:21Z</time>
      </trkpt>
      <trkpt lat="44.7553" lon="3.68968">
        <ele>1216</ele>
        <time>2013-05-21T08:57:22Z</time>
      </trkpt>
      <trkpt lat="44.75449" lon="3.6899">
        <ele>1216</ele>
        <time>2013-05-21T08:58:19Z</time>
      </trkpt>
      <trkpt lat="44.75418" lon="3.68992">
        <ele>1215</ele>
        <time>2013-05-21T08:59:15Z</time>
      </trkpt>
      <trkpt lat="44.75381" lon="3.68992">
        <ele>1217</ele>
        <time>2013-05-21T08:59:16Z</time>
      </trkpt>
      <trkpt lat="44.75333" lon="3.69008">
        <ele>1217</ele>
        <time>2013-05-21T09:00:19Z</time>
      </trkpt>
      <trkpt lat="44.7533" lon="3.69009">
        <ele>1216</ele>
        <time>2013-05-21T09:00:20Z</time>
      </trkpt>
      <trkpt lat="44.75247" lon="3.69014">
        <ele>1215</ele>
        <time>2013-05-21T09:01:42Z</time>
      </trkpt>
      <trkpt lat="44.75244" lon="3.69015">
        <ele>1215</ele>
        <time>2013-05-21T09:01:43Z</time>
      </trkpt>
      <trkpt lat="44.75169" lon="3.69064">
        <ele>1216</ele>
        <time>2013-05-21T09:02:53Z</time>
      </trkpt>
      <trkpt lat="44.75167" lon="3.69066">
        <ele>1216</ele>
        <time>2013-05-21T09:02:54Z</time>
      </trkpt>
      <trkpt lat="44.75107" lon="3.69144">
        <ele>1217</ele>
        <time>2013-05-21T09:03:51Z</time>
      </trkpt>
      <trkpt lat="44.75075" lon="3.69182">
        <ele>1218</ele>
        <time>2013-05-21T09:04:20Z</time>
      </trkpt>
      <trkpt lat="44.75071" lon="3.69186">
        <ele>1218</ele>
        <time>2013-05-21T09:04:21Z</time>
      </trkpt>
      <trkpt lat="44.75002" lon="3.69238">
        <ele>1219</ele>
        <time>2013-05-21T09:07:06Z</time>
      </trkpt>
      <trkpt lat="44.74971" lon="3.69266">
        <ele>1224</ele>
        <time>2013-05-21T09:07:07Z</time>
      </trkpt>
      <trkpt lat="44.7492" lon="3.6928">
        <ele>1222</ele>
        <time>2013-05-21T09:08:20Z</time>
      </trkpt>
      <trkpt lat="44.74916" lon="3.6928">
        <ele>1222</ele>
        <time>2013-05-21T09:08:21Z</time>
      </trkpt>
      <trkpt lat="44.74834" lon="3.69271">
        <ele>1218</ele>
        <time>2013-05-21T09:09:33Z</time>
      </trkpt>
      <trkpt lat="44.7483" lon="3.69271">
        <ele>1218</ele>
        <time>2013-05-21T09:09:34Z</time>
      </trkpt>
      <trkpt lat="44.74747" lon="3.69263">
        <ele>1212</ele>
        <time>2013-05-21T09:10:48Z</time>
      </trkpt>
      <trkpt lat="44.74743" lon="3.69263">
        <ele>1212</ele>
        <time>2013-05-21T09:10:49Z</time>
      </trkpt>
      <trkpt lat="44.74663" lon="3.6927">
        <ele>1210</ele>
        <time>2013-05-21T09:11:54Z</time>
      </trkpt>
      <trkpt lat="44.74626" lon="3.69279">
        <ele>1209</ele>
        <time>2013-05-21T09:11:55Z</time>
      </trkpt>
      <trkpt lat="44.74579" lon="3.69291">
        <ele>1209</ele>
        <time>2013-05-21T09:12:46Z</time>
      </trkpt>
      <trkpt lat="44.74537" lon="3.69306">
        <ele>1209</ele>
        <time>2013-05-21T09:13:27Z</time>
      </trkpt>
      <trkpt lat="44.74533" lon="3.69308">
        <ele>1210</ele>
        <time>2013-05-21T09:13:28Z</time>
      </trkpt>
      <trkpt lat="44.74467" lon="3.69382">
        <ele>1210</ele>
        <time>2013-05-21T09:14:30Z</time>
      </trkpt>
      <trkpt lat="44.74465" lon="3.69386">
        <ele>1210</ele>
        <time>2013-05-21T09:14:31Z</time>
      </trkpt>
      <trkpt lat="44.74411" lon="3.69473">
        <ele>1213</ele>
        <time>2013-05-21T09:15:34Z</time>
      </trkpt>
      <trkpt lat="44.74408" lon="3.69476">
        <ele>1213</ele>
        <time>2013-05-21T09:15:35Z</time>
      </trkpt>
      <trkpt lat="44.74349" lon="3.69552">
        <ele>1216</ele>
        <time>2013-05-21T09:16:27Z</time>
      </trkpt>
      <trkpt lat="44.74319" lon="3.69597">
        <ele>1216</ele>
        <time>2013-05-21T09:16:42Z</time>
      </trkpt>
      <trkpt lat="44.74318" lon="3.69599">
        <ele>1216</ele>
        <time>2013-05-21T09:16:43Z</time>
      </trkpt>
      <trkpt lat="44.74292" lon="3.69714">
        <ele>1210</ele>
        <time>2013-05-21T09:18:02Z</time>
      </trkpt>
      <trkpt lat="44.74292" lon="3.69719">
        <ele>1210</ele>
        <time>2013-05-21T09:18:03Z</time>
      </trkpt>
      <trkpt lat="44.74305" lon="3.69834">
        <ele>1208</ele>
        <time>2013-05-21T09:18:54Z</time>
      </trkpt>
      <trkpt lat="44.74323" lon="3.6989">
        <ele>1207</ele>
        <time>2013-05-21T09:19:38Z</time>
      </trkpt>
      <trkpt lat="44.74324" lon="3.69894">
        <ele>1207</ele>
        <time>2013-05-21T09:19:39Z</time>
      </trkpt>
      <trkpt lat="44.74357" lon="3.70001">
        <ele>1203</ele>
        <time>2013-05-21T09:20:36Z</time>
      </trkpt>
      <trkpt lat="44.7437" lon="3.7006">
        <ele>1200</ele>
        <time>2013-05-21T09:21:04Z</time>
      </trkpt>
      <trkpt lat="44.74371" lon="3.70064">
        <ele>1200</ele>
        <time>2013-05-21T09:21:05Z</time>
      </trkpt>
      <trkpt lat="44.7439" lon="3.70178">
        <ele>1197</ele>
        <time>2013-05-21T09:21:55Z</time>
      </trkpt>
      <trkpt lat="44.74406" lon="3.70234">
        <ele>1197</ele>
        <time>2013-05-21T09:22:24Z</time>
      </trkpt>
      <trkpt lat="44.74407" lon="3.70237">
        <ele>1196</ele>
        <time>2013-05-21T09:22:25Z</time>
      </trkpt>
      <trkpt lat="44.74448" lon="3.70342">
        <ele>1188</ele>
        <time>2013-05-21T09:23:24Z</time>
      </trkpt>
      <trkpt lat="44.74468" lon="3.70398">
        <ele>1177</ele>
        <time>2013-05-21T09:24:11Z</time>
      </trkpt>
      <trkpt lat="44.74469" lon="3.70402">
        <ele>1177</ele>
        <time>2013-05-21T09:24:12Z</time>
      </trkpt>
      <trkpt lat="44.74455" lon="3.7052">
        <ele>1169</ele>
        <time>2013-05-21T09:25:19Z</time>
      </trkpt>
      <trkpt lat="44.74455" lon="3.70525">
        <ele>1169</ele>
        <time>2013-05-21T09:25:20Z</time>
      </trkpt>
      <trkpt lat="44.74496" lon="3.70621">
        <ele>1158</ele>
        <time>2013-05-21T09:26:30Z</time>
      </trkpt>
      <trkpt lat="44.74498" lon="3.70625">
        <ele>1158</ele>
        <time>2013-05-21T09:26:31Z</time>
      </trkpt>
      <trkpt lat="44.7456" lon="3.70707">
        <ele>1151</ele>
        <time>2013-05-21T09:27:23Z</time>
      </trkpt>
      <trkpt lat="44.74579" lon="3.70761">
        <ele>1149</ele>
        <time>2013-05-21T09:27:51Z</time>
      </trkpt>
      <trkpt lat="44.7458" lon="3.70764">
        <ele>1149</ele>
        <time>2013-05-21T09:27:52Z</time>
      </trkpt>
      <trkpt lat="44.74625" lon="3.70862">
        <ele>1143</ele>
        <time>2013-05-21T09:29:03Z</time>
      </trkpt>
      <trkpt lat="44.74627" lon="3.70867">
        <ele>1143</ele>
        <time>2013-05-21T09:29:04Z</time>
      </trkpt>
      <trkpt lat="44.74658" lon="3.70975">
        <ele>1138</ele>
        <time>2013-05-21T09:29:41Z</time>
      </trkpt>
      <trkpt lat="44.74687" lon="3.71022">
        <ele>1136</ele>
        <time>2013-05-21T09:30:05Z</time>
      </trkpt>
      <trkpt lat="44.74689" lon="3.71024">
        <ele>1136</ele>
        <time>2013-05-21T09:30:06Z</time>
      </trkpt>
      <trkpt lat="44.74741" lon="3.71117">
        <ele>1135</ele>
        <time>2013-05-21T09:31:28Z</time>
      </trkpt>
      <trkpt lat="44.74743" lon="3.71122">
        <ele>1134</ele>
        <time>2013-05-21T09:31:29Z</time>
      </trkpt>
      <trkpt lat="44.7479" lon="3.71219">
        <ele>1128</ele>
        <time>2013-05-21T09:32:21Z</time>
      </trkpt>
      <trkpt lat="44.74816" lon="3.71269">
        <ele>1126</ele>
        <time>2013-05-21T09:32:45Z</time>
      </trkpt>
      <trkpt lat="44.74817" lon="3.71271">
        <ele>1126</ele>
        <time>2013-05-21T09:32:46Z</time>
      </trkpt>
      <trkpt lat="44.74855" lon="3.71375">
        <ele>1126</ele>
        <time>2013-05-21T09:33:51Z</time>
      </trkpt>
      <trkpt lat="44.74856" lon="3.71379">
        <ele>1126</ele>
        <time>2013-05-21T09:33:52Z</time>
      </trkpt>
      <trkpt lat="44.7487" lon="3.71494">
        <ele>1128</ele>
        <time>2013-05-21T09:34:58Z</time>
      </trkpt>
      <trkpt lat="44.74869" lon="3.71499">
        <ele>1128</ele>
        <time>2013-05-21T09:34:59Z</time>
      </trkpt>
      <trkpt lat="44.74879" lon="3.71617">
        <ele>1124</ele>
        <time>2013-05-21T09:35:42Z</time>
      </trkpt>
      <trkpt lat="44.74899" lon="3.71673">
        <ele>1124</ele>
        <time>2013-05-21T09:36:07Z</time>
      </trkpt>
      <trkpt lat="44.74899" lon="3.71675">
        <ele>1124</ele>
        <time>2013-05-21T09:36:08Z</time>
      </trkpt>
      <trkpt lat="44.74862" lon="3.71785">
        <ele>1117</ele>
        <time>2013-05-21T09:37:33Z</time>
      </trkpt>
      <trkpt lat="44.74861" lon="3.71789">
        <ele>1117</ele>
        <time>2013-05-21T09:37:34Z</time>
      </trkpt>
      <trkpt lat="44.74903" lon="3.71812">
        <ele>1106</ele>
        <time>2013-05-21T09:38:38Z</time>
      </trkpt>
      <trkpt lat="44.74983" lon="3.71766">
        <ele>1092</ele>
        <time>2013-05-21T09:39:24Z</time>
      </trkpt>
      <trkpt lat="44.75025" lon="3.71745">
        <ele>1090</ele>
        <time>2013-05-21T09:40:01Z</time>
      </trkpt>
      <trkpt lat="44.75027" lon="3.71744">
        <ele>1090</ele>
        <time>2013-05-21T09:40:02Z</time>
      </trkpt>
      <trkpt lat="44.75052" lon="3.71845">
        <ele>1068</ele>
        <time>2013-05-21T09:41:28Z</time>
      </trkpt>
      <trkpt lat="44.75054" lon="3.7185">
        <ele>1068</ele>
        <time>2013-05-21T09:41:29Z</time>
      </trkpt>
      <trkpt lat="44.75104" lon="3.71943">
        <ele>1064</ele>
        <time>2013-05-21T09:42:15Z</time>
      </trkpt>
      <trkpt lat="44.75137" lon="3.71983">
        <ele>1061</ele>
        <time>2013-05-21T09:42:48Z</time>
      </trkpt>
      <trkpt lat="44.75138" lon="3.71985">
        <ele>1060</ele>
        <time>2013-05-21T09:42:49Z</time>
      </trkpt>
      <trkpt lat="44.7521" lon="3.72037">
        <ele>1046</ele>
        <time>2013-05-21T09:44:27Z</time>
      </trkpt>
      <trkpt lat="44.75214" lon="3.72038">
        <ele>1046</ele>
        <time>2013-05-21T09:44:28Z</time>
      </trkpt>
      <trkpt lat="44.75257" lon="3.72043">
        <ele>1046</ele>
        <time>2013-05-21T09:45:32Z</time>
      </trkpt>
      <trkpt lat="44.75286" lon="3.72091">
        <ele>1039</ele>
        <time>2013-05-21T09:46:51Z</time>
      </trkpt>
      <trkpt lat="44.75269" lon="3.72148">
        <ele>1036</ele>
        <time>2013-05-21T09:49:26Z</time>
      </trkpt>
      <trkpt lat="44.75204" lon="3.72218">
        <ele>1030</ele>
        <time>2013-05-21T09:50:46Z</time>
      </trkpt>
      <trkpt lat="44.75202" lon="3.72222">
        <ele>1030</ele>
        <time>2013-05-21T09:50:47Z</time>
      </trkpt>
      <trkpt lat="44.75151" lon="3.72311">
        <ele>1016</ele>
        <time>2013-05-21T09:51:45Z</time>
      </trkpt>
      <trkpt lat="44.75132" lon="3.72367">
        <ele>1014</ele>
        <time>2013-05-21T09:52:15Z</time>
      </trkpt>
      <trkpt lat="44.75132" lon="3.72372">
        <ele>1014</ele>
        <time>2013-05-21T09:52:16Z</time>
      </trkpt>
      <trkpt lat="44.75125" lon="3.72487">
        <ele>1009</ele>
        <time>2013-05-21T09:53:01Z</time>
      </trkpt>
      <trkpt lat="44.75125" lon="3.72548">
        <ele>1008</ele>
        <time>2013-05-21T09:53:28Z</time>
      </trkpt>
      <trkpt lat="44.75124" lon="3.72551">
        <ele>1008</ele>
        <time>2013-05-21T09:53:29Z</time>
      </trkpt>
      <trkpt lat="44.75114" lon="3.72668">
        <ele>1001</ele>
        <time>2013-05-21T09:54:41Z</time>
      </trkpt>
      <trkpt lat="44.75113" lon="3.72673">
        <ele>1001</ele>
        <time>2013-05-21T09:54:42Z</time>
      </trkpt>
      <trkpt lat="44.75087" lon="3.72781">
        <ele>998</ele>
        <time>2013-05-21T09:55:39Z</time>
      </trkpt>
      <trkpt lat="44.75055" lon="3.72819">
        <ele>1006</ele>
        <time>2013-05-21T09:56:11Z</time>
      </trkpt>
      <trkpt lat="44.75052" lon="3.72823">
        <ele>1008</ele>
        <time>2013-05-21T09:56:12Z</time>
      </trkpt>
      <trkpt lat="44.75074" lon="3.72877">
        <ele>1011</ele>
        <time>2013-05-21T09:59:34Z</time>
      </trkpt>
      <trkpt lat="44.75154" lon="3.72888">
        <ele>1012</ele>
        <time>2013-05-21T10:05:10Z</time>
      </trkpt>
      <trkpt lat="44.75158" lon="3.72886">
        <ele>1012</ele>
        <time>2013-05-21T10:05:11Z</time>
      </trkpt>
      <trkpt lat="44.75197" lon="3.72924">
        <ele>1022</ele>
        <time>2013-05-21T10:08:31Z</time>
      </trkpt>
      <trkpt lat="44.75196" lon="3.72929">
        <ele>1023</ele>
        <time>2013-05-21T10:08:32Z</time>
      </trkpt>
      <trkpt lat="44.75178" lon="3.73043">
        <ele>1030</ele>
        <time>2013-05-21T10:09:36Z</time>
      </trkpt>
      <trkpt lat="44.75177" lon="3.73048">
        <ele>1030</ele>
        <time>2013-05-21T10:09:37Z</time>
      </trkpt>
      <trkpt lat="44.75166" lon="3.73165">
        <ele>1040</ele>
        <time>2013-05-21T10:10:23Z</time>
      </trkpt>
      <trkpt lat="44.75167" lon="3.73226">
        <ele>1041</ele>
        <time>2013-05-21T10:10:50Z</time>
      </trkpt>
      <trkpt lat="44.75167" lon="3.73228">
        <ele>1041</ele>
        <time>2013-05-21T10:10:51Z</time>
      </trkpt>
      <trkpt lat="44.75138" lon="3.73335">
        <ele>1046</ele>
        <time>2013-05-21T10:12:33Z</time>
      </trkpt>
      <trkpt lat="44.75136" lon="3.7334">
        <ele>1046</ele>
        <time>2013-05-21T10:12:34Z</time>
      </trkpt>
      <trkpt lat="44.75096" lon="3.73441">
        <ele>1046</ele>
        <time>2013-05-21T10:13:39Z</time>
      </trkpt>
      <trkpt lat="44.75095" lon="3.73446">
        <ele>1047</ele>
        <time>2013-05-21T10:13:40Z</time>
      </trkpt>
      <trkpt lat="44.75065" lon="3.73554">
        <ele>1062</ele>
        <time>2013-05-21T10:14:26Z</time>
      </trkpt>
      <trkpt lat="44.7505" lon="3.73609">
        <ele>1068</ele>
        <time>2013-05-21T10:15:25Z</time>
      </trkpt>
      <trkpt lat="44.75048" lon="3.73613">
        <ele>1068</ele>
        <time>2013-05-21T10:15:26Z</time>
      </trkpt>
      <trkpt lat="44.75023" lon="3.73704">
        <ele>1074</ele>
        <time>2013-05-21T10:15:58Z</time>
      </trkpt>
      <trkpt lat="44.75011" lon="3.73749">
        <ele>1076</ele>
        <time>2013-05-21T10:16:49Z</time>
      </trkpt>
      <trkpt lat="44.75003" lon="3.73798">
        <ele>1083</ele>
        <time>2013-05-21T10:16:50Z</time>
      </trkpt>
      <trkpt lat="44.74999" lon="3.73838">
        <ele>1087</ele>
        <time>2013-05-21T10:17:37Z</time>
      </trkpt>
      <trkpt lat="44.74993" lon="3.739">
        <ele>1088</ele>
        <time>2013-05-21T10:17:44Z</time>
      </trkpt>
      <trkpt lat="44.74982" lon="3.73914">
        <ele>1088</ele>
        <time>2013-05-21T10:18:21Z</time>
      </trkpt>
      <trkpt lat="44.74946" lon="3.73927">
        <ele>1090</ele>
        <time>2013-05-21T10:18:22Z</time>
      </trkpt>
      <trkpt lat="44.74918" lon="3.73937">
        <ele>1090</ele>
        <time>2013-05-21T10:19:07Z</time>
      </trkpt>
      <trkpt lat="44.74875" lon="3.7395">
        <ele>1090</ele>
        <time>2013-05-21T10:19:14Z</time>
      </trkpt>
      <trkpt lat="44.74831" lon="3.73966">
        <ele>1092</ele>
        <time>2013-05-21T10:19:46Z</time>
      </trkpt>
      <trkpt lat="44.7483" lon="3.73967">
        <ele>1092</ele>
        <time>2013-05-21T10:19:47Z</time>
      </trkpt>
      <trkpt lat="44.74744" lon="3.73984">
        <ele>1090</ele>
        <time>2013-05-21T10:21:12Z</time>
      </trkpt>
      <trkpt lat="44.74709" lon="3.73993">
        <ele>1092</ele>
        <time>2013-05-21T10:21:15Z</time>
      </trkpt>
      <trkpt lat="44.74658" lon="3.74006">
        <ele>1092</ele>
        <time>2013-05-21T10:21:53Z</time>
      </trkpt>
      <trkpt lat="44.74618" lon="3.74031">
        <ele>1092</ele>
        <time>2013-05-21T10:22:24Z</time>
      </trkpt>
      <trkpt lat="44.74617" lon="3.74032">
        <ele>1092</ele>
        <time>2013-05-21T10:22:25Z</time>
      </trkpt>
      <trkpt lat="44.74547" lon="3.74107">
        <ele>1093</ele>
        <time>2013-05-21T10:23:24Z</time>
      </trkpt>
      <trkpt lat="44.74521" lon="3.74158">
        <ele>1093</ele>
        <time>2013-05-21T10:23:56Z</time>
      </trkpt>
      <trkpt lat="44.7452" lon="3.7416">
        <ele>1093</ele>
        <time>2013-05-21T10:23:57Z</time>
      </trkpt>
      <trkpt lat="44.74488" lon="3.74233">
        <ele>1093</ele>
        <time>2013-05-21T10:24:41Z</time>
      </trkpt>
      <trkpt lat="44.74468" lon="3.74265">
        <ele>1094</ele>
        <time>2013-05-21T10:26:58Z</time>
      </trkpt>
      <trkpt lat="44.74441" lon="3.74299">
        <ele>1094</ele>
        <time>2013-05-21T10:26:59Z</time>
      </trkpt>
      <trkpt lat="44.74403" lon="3.74346">
        <ele>1097</ele>
        <time>2013-05-21T10:27:34Z</time>
      </trkpt>
      <trkpt lat="44.74368" lon="3.74386">
        <ele>1096</ele>
        <time>2013-05-21T10:28:03Z</time>
      </trkpt>
      <trkpt lat="44.74366" lon="3.74388">
        <ele>1096</ele>
        <time>2013-05-21T10:28:04Z</time>
      </trkpt>
      <trkpt lat="44.74299" lon="3.74453">
        <ele>1092</ele>
        <time>2013-05-21T10:28:25Z</time>
      </trkpt>
      <trkpt lat="44.7426" lon="3.74484">
        <ele>1090</ele>
        <time>2013-05-21T10:28:33Z</time>
      </trkpt>
      <trkpt lat="44.74223" lon="3.74511">
        <ele>1088</ele>
        <time>2013-05-21T10:28:47Z</time>
      </trkpt>
      <trkpt lat="44.74188" lon="3.74549">
        <ele>1088</ele>
        <time>2013-05-21T10:28:58Z</time>
      </trkpt>
      <trkpt lat="44.7416" lon="3.74596">
        <ele>1086</ele>
        <time>2013-05-21T10:29:35Z</time>
      </trkpt>
      <trkpt lat="44.74158" lon="3.74598">
        <ele>1086</ele>
        <time>2013-05-21T10:29:36Z</time>
      </trkpt>
      <trkpt lat="44.74091" lon="3.7467">
        <ele>1082</ele>
        <time>2013-05-21T10:30:24Z</time>
      </trkpt>
      <trkpt lat="44.74055" lon="3.74701">
        <ele>1084</ele>
        <time>2013-05-21T10:30:33Z</time>
      </trkpt>
      <trkpt lat="44.74018" lon="3.74724">
        <ele>1080</ele>
        <time>2013-05-21T10:30:42Z</time>
      </trkpt>
      <trkpt lat="44.74014" lon="3.74727">
        <ele>1079</ele>
        <time>2013-05-21T10:30:43Z</time>
      </trkpt>
      <trkpt lat="44.73941" lon="3.74779">
        <ele>1081</ele>
        <time>2013-05-21T10:31:03Z</time>
      </trkpt>
      <trkpt lat="44.73904" lon="3.74813">
        <ele>1085</ele>
        <time>2013-05-21T10:31:13Z</time>
      </trkpt>
      <trkpt lat="44.73876" lon="3.74861">
        <ele>1086</ele>
        <time>2013-05-21T10:31:55Z</time>
      </trkpt>
      <trkpt lat="44.73874" lon="3.74865">
        <ele>1086</ele>
        <time>2013-05-21T10:31:56Z</time>
      </trkpt>
      <trkpt lat="44.73827" lon="3.74964">
        <ele>1089</ele>
        <time>2013-05-21T10:33:17Z</time>
      </trkpt>
      <trkpt lat="44.73824" lon="3.74965">
        <ele>1088</ele>
        <time>2013-05-21T10:33:18Z</time>
      </trkpt>
      <trkpt lat="44.73751" lon="3.75018">
        <ele>1082</ele>
        <time>2013-05-21T10:34:22Z</time>
      </trkpt>
      <trkpt lat="44.73748" lon="3.7502">
        <ele>1082</ele>
        <time>2013-05-21T10:34:23Z</time>
      </trkpt>
      <trkpt lat="44.73712" lon="3.75052">
        <ele>1084</ele>
        <time>2013-05-21T10:41:15Z</time>
      </trkpt>
      <trkpt lat="44.73642" lon="3.75119">
        <ele>1086</ele>
        <time>2013-05-21T10:42:09Z</time>
      </trkpt>
      <trkpt lat="44.73604" lon="3.75143">
        <ele>1088</ele>
        <time>2013-05-21T10:42:47Z</time>
      </trkpt>
      <trkpt lat="44.73601" lon="3.75146">
        <ele>1088</ele>
        <time>2013-05-21T10:42:48Z</time>
      </trkpt>
      <trkpt lat="44.73527" lon="3.752">
        <ele>1088</ele>
        <time>2013-05-21T10:43:46Z</time>
      </trkpt>
      <trkpt lat="44.73489" lon="3.7523">
        <ele>1089</ele>
        <time>2013-05-21T10:44:07Z</time>
      </trkpt>
      <trkpt lat="44.73487" lon="3.75232">
        <ele>1089</ele>
        <time>2013-05-21T10:44:08Z</time>
      </trkpt>
      <trkpt lat="44.73408" lon="3.75276">
        <ele>1085</ele>
        <time>2013-05-21T10:45:18Z</time>
      </trkpt>
      <trkpt lat="44.73405" lon="3.75278">
        <ele>1084</ele>
        <time>2013-05-21T10:45:19Z</time>
      </trkpt>
      <trkpt lat="44.73332" lon="3.7534">
        <ele>1081</ele>
        <time>2013-05-21T10:46:16Z</time>
      </trkpt>
      <trkpt lat="44.73296" lon="3.75374">
        <ele>1084</ele>
        <time>2013-05-21T10:46:50Z</time>
      </trkpt>
      <trkpt lat="44.73292" lon="3.75377">
        <ele>1084</ele>
        <time>2013-05-21T10:46:51Z</time>
      </trkpt>
      <trkpt lat="44.7322" lon="3.75429">
        <ele>1085</ele>
        <time>2013-05-21T10:47:51Z</time>
      </trkpt>
      <trkpt lat="44.73217" lon="3.75431">
        <ele>1085</ele>
        <time>2013-05-21T10:47:52Z</time>
      </trkpt>
      <trkpt lat="44.73141" lon="3.75486">
        <ele>1086</ele>
        <time>2013-05-21T10:48:59Z</time>
      </trkpt>
      <trkpt lat="44.73138" lon="3.75489">
        <ele>1086</ele>
        <time>2013-05-21T10:49:00Z</time>
      </trkpt>
      <trkpt lat="44.7307" lon="3.75557">
        <ele>1083</ele>
        <time>2013-05-21T10:50:08Z</time>
      </trkpt>
      <trkpt lat="44.73068" lon="3.75559">
        <ele>1083</ele>
        <time>2013-05-21T10:50:09Z</time>
      </trkpt>
      <trkpt lat="44.73033" lon="3.75598">
        <ele>1087</ele>
        <time>2013-05-21T10:51:46Z</time>
      </trkpt>
      <trkpt lat="44.72967" lon="3.7567">
        <ele>1086</ele>
        <time>2013-05-21T10:52:47Z</time>
      </trkpt>
      <trkpt lat="44.72964" lon="3.75674">
        <ele>1087</ele>
        <time>2013-05-21T10:52:48Z</time>
      </trkpt>
      <trkpt lat="44.7291" lon="3.75761">
        <ele>1086</ele>
        <time>2013-05-21T10:53:46Z</time>
      </trkpt>
      <trkpt lat="44.72875" lon="3.75799">
        <ele>1083</ele>
        <time>2013-05-21T10:54:09Z</time>
      </trkpt>
      <trkpt lat="44.72873" lon="3.758">
        <ele>1082</ele>
        <time>2013-05-21T10:54:10Z</time>
      </trkpt>
      <trkpt lat="44.72805" lon="3.75865">
        <ele>1078</ele>
        <time>2013-05-21T10:55:24Z</time>
      </trkpt>
      <trkpt lat="44.72802" lon="3.75869">
        <ele>1079</ele>
        <time>2013-05-21T10:55:25Z</time>
      </trkpt>
      <trkpt lat="44.72741" lon="3.75946">
        <ele>1091</ele>
        <time>2013-05-21T10:56:21Z</time>
      </trkpt>
      <trkpt lat="44.72707" lon="3.7598">
        <ele>1093</ele>
        <time>2013-05-21T10:56:57Z</time>
      </trkpt>
      <trkpt lat="44.72704" lon="3.75983">
        <ele>1093</ele>
        <time>2013-05-21T10:56:58Z</time>
      </trkpt>
      <trkpt lat="44.72649" lon="3.76068">
        <ele>1092</ele>
        <time>2013-05-21T10:57:44Z</time>
      </trkpt>
      <trkpt lat="44.72606" lon="3.76088">
        <ele>1092</ele>
        <time>2013-05-21T10:58:25Z</time>
      </trkpt>
      <trkpt lat="44.72603" lon="3.7609">
        <ele>1092</ele>
        <time>2013-05-21T10:58:26Z</time>
      </trkpt>
      <trkpt lat="44.72522" lon="3.76108">
        <ele>1090</ele>
        <time>2013-05-21T10:59:26Z</time>
      </trkpt>
      <trkpt lat="44.72518" lon="3.76109">
        <ele>1090</ele>
        <time>2013-05-21T10:59:27Z</time>
      </trkpt>
      <trkpt lat="44.72442" lon="3.76144">
        <ele>1090</ele>
        <time>2013-05-21T11:00:14Z</time>
      </trkpt>
      <trkpt lat="44.72402" lon="3.76164">
        <ele>1091</ele>
        <time>2013-05-21T11:00:59Z</time>
      </trkpt>
      <trkpt lat="44.72398" lon="3.76166">
        <ele>1090</ele>
        <time>2013-05-21T11:01:00Z</time>
      </trkpt>
      <trkpt lat="44.72317" lon="3.76199">
        <ele>1090</ele>
        <time>2013-05-21T11:01:44Z</time>
      </trkpt>
      <trkpt lat="44.72275" lon="3.76222">
        <ele>1091</ele>
        <time>2013-05-21T11:02:01Z</time>
      </trkpt>
      <trkpt lat="44.72273" lon="3.76223">
        <ele>1091</ele>
        <time>2013-05-21T11:02:02Z</time>
      </trkpt>
      <trkpt lat="44.72191" lon="3.76252">
        <ele>1086</ele>
        <time>2013-05-21T11:03:25Z</time>
      </trkpt>
      <trkpt lat="44.72188" lon="3.76254">
        <ele>1086</ele>
        <time>2013-05-21T11:03:26Z</time>
      </trkpt>
      <trkpt lat="44.7212" lon="3.76319">
        <ele>1081</ele>
        <time>2013-05-21T11:04:44Z</time>
      </trkpt>
      <trkpt lat="44.72117" lon="3.76319">
        <ele>1081</ele>
        <time>2013-05-21T11:04:45Z</time>
      </trkpt>
      <trkpt lat="44.72045" lon="3.76262">
        <ele>1079</ele>
        <time>2013-05-21T11:05:38Z</time>
      </trkpt>
      <trkpt lat="44.72008" lon="3.76231">
        <ele>1078</ele>
        <time>2013-05-21T11:07:04Z</time>
      </trkpt>
      <trkpt lat="44.72005" lon="3.76228">
        <ele>1079</ele>
        <time>2013-05-21T11:07:05Z</time>
      </trkpt>
      <trkpt lat="44.71928" lon="3.76179">
        <ele>1081</ele>
        <time>2013-05-21T11:09:38Z</time>
      </trkpt>
      <trkpt lat="44.71925" lon="3.76179">
        <ele>1081</ele>
        <time>2013-05-21T11:09:39Z</time>
      </trkpt>
      <trkpt lat="44.71849" lon="3.76124">
        <ele>1083</ele>
        <time>2013-05-21T11:10:26Z</time>
      </trkpt>
      <trkpt lat="44.71842" lon="3.76115">
        <ele>1084</ele>
        <time>2013-05-21T11:10:58Z</time>
      </trkpt>
      <trkpt lat="44.71828" lon="3.76067">
        <ele>1088</ele>
        <time>2013-05-21T11:10:59Z</time>
      </trkpt>
      <trkpt lat="44.71801" lon="3.7602">
        <ele>1090</ele>
        <time>2013-05-21T11:11:38Z</time>
      </trkpt>
      <trkpt lat="44.71765" lon="3.75983">
        <ele>1090</ele>
        <time>2013-05-21T11:12:00Z</time>
      </trkpt>
      <trkpt lat="44.71764" lon="3.75981">
        <ele>1090</ele>
        <time>2013-05-21T11:12:01Z</time>
      </trkpt>
      <trkpt lat="44.71716" lon="3.7588">
        <ele>1094</ele>
        <time>2013-05-21T11:13:00Z</time>
      </trkpt>
      <trkpt lat="44.7171" lon="3.75818">
        <ele>1102</ele>
        <time>2013-05-21T11:13:35Z</time>
      </trkpt>
      <trkpt lat="44.71709" lon="3.75816">
        <ele>1103</ele>
        <time>2013-05-21T11:13:36Z</time>
      </trkpt>
      <trkpt lat="44.71704" lon="3.75738">
        <ele>1109</ele>
        <time>2013-05-21T11:14:40Z</time>
      </trkpt>
      <trkpt lat="44.71696" lon="3.75688">
        <ele>1113</ele>
        <time>2013-05-21T11:14:41Z</time>
      </trkpt>
      <trkpt lat="44.71672" lon="3.75623">
        <ele>1116</ele>
        <time>2013-05-21T11:15:33Z</time>
      </trkpt>
      <trkpt lat="44.71669" lon="3.75561">
        <ele>1118</ele>
        <time>2013-05-21T11:16:06Z</time>
      </trkpt>
      <trkpt lat="44.71669" lon="3.75559">
        <ele>1118</ele>
        <time>2013-05-21T11:16:07Z</time>
      </trkpt>
      <trkpt lat="44.71652" lon="3.75465">
        <ele>1123</ele>
        <time>2013-05-21T11:17:24Z</time>
      </trkpt>
      <trkpt lat="44.7164" lon="3.75418">
        <ele>1123</ele>
        <time>2013-05-21T11:17:25Z</time>
      </trkpt>
      <trkpt lat="44.71631" lon="3.75387">
        <ele>1124</ele>
        <time>2013-05-21T11:18:06Z</time>
      </trkpt>
      <trkpt lat="44.71613" lon="3.7533">
        <ele>1123</ele>
        <time>2013-05-21T11:18:12Z</time>
      </trkpt>
      <trkpt lat="44.71597" lon="3.7528">
        <ele>1124</ele>
        <time>2013-05-21T11:18:43Z</time>
      </trkpt>
      <trkpt lat="44.7159" lon="3.75256">
        <ele>1124</ele>
        <time>2013-05-21T11:18:44Z</time>
      </trkpt>
      <trkpt lat="44.71585" lon="3.75185">
        <ele>1122</ele>
        <time>2013-05-21T11:19:44Z</time>
      </trkpt>
      <trkpt lat="44.71585" lon="3.75179">
        <ele>1122</ele>
        <time>2013-05-21T11:19:45Z</time>
      </trkpt>
      <trkpt lat="44.71585" lon="3.75091">
        <ele>1119</ele>
        <time>2013-05-21T11:20:34Z</time>
      </trkpt>
      <trkpt lat="44.71585" lon="3.75033">
        <ele>1116</ele>
        <time>2013-05-21T11:21:04Z</time>
      </trkpt>
      <trkpt lat="44.71591" lon="3.74982">
        <ele>1116</ele>
        <time>2013-05-21T11:21:05Z</time>
      </trkpt>
      <trkpt lat="44.71596" lon="3.74917">
        <ele>1115</ele>
        <time>2013-05-21T12:24:17Z</time>
      </trkpt>
      <trkpt lat="44.71597" lon="3.74912">
        <ele>1115</ele>
        <time>2013-05-21T12:24:18Z</time>
      </trkpt>
      <trkpt lat="44.7163" lon="3.74807">
        <ele>1112</ele>
        <time>2013-05-21T12:25:22Z</time>
      </trkpt>
      <trkpt lat="44.71632" lon="3.74802">
        <ele>1112</ele>
        <time>2013-05-21T12:25:23Z</time>
      </trkpt>
      <trkpt lat="44.71668" lon="3.74696">
        <ele>1106</ele>
        <time>2013-05-21T12:26:33Z</time>
      </trkpt>
      <trkpt lat="44.71669" lon="3.74691">
        <ele>1105</ele>
        <time>2013-05-21T12:26:34Z</time>
      </trkpt>
      <trkpt lat="44.71698" lon="3.74583">
        <ele>1097</ele>
        <time>2013-05-21T12:27:34Z</time>
      </trkpt>
      <trkpt lat="44.717" lon="3.74579">
        <ele>1097</ele>
        <time>2013-05-21T12:27:35Z</time>
      </trkpt>
      <trkpt lat="44.7168" lon="3.74521">
        <ele>1085</ele>
        <time>2013-05-21T12:30:07Z</time>
      </trkpt>
      <trkpt lat="44.71645" lon="3.74537">
        <ele>1082</ele>
        <time>2013-05-21T12:30:08Z</time>
      </trkpt>
      <trkpt lat="44.71606" lon="3.74568">
        <ele>1083</ele>
        <time>2013-05-21T12:31:13Z</time>
      </trkpt>
      <trkpt lat="44.71574" lon="3.74592">
        <ele>1085</ele>
        <time>2013-05-21T12:31:14Z</time>
      </trkpt>
      <trkpt lat="44.71532" lon="3.74573">
        <ele>1085</ele>
        <time>2013-05-21T12:32:36Z</time>
      </trkpt>
      <trkpt lat="44.71499" lon="3.74555">
        <ele>1081</ele>
        <time>2013-05-21T12:32:37Z</time>
      </trkpt>
      <trkpt lat="44.71471" lon="3.74548">
        <ele>1076</ele>
        <time>2013-05-21T12:34:12Z</time>
      </trkpt>
      <trkpt lat="44.71427" lon="3.74554">
        <ele>1076</ele>
        <time>2013-05-21T12:35:02Z</time>
      </trkpt>
      <trkpt lat="44.71387" lon="3.74536">
        <ele>1075</ele>
        <time>2013-05-21T12:36:00Z</time>
      </trkpt>
      <trkpt lat="44.71365" lon="3.74495">
        <ele>1076</ele>
        <time>2013-05-21T12:36:01Z</time>
      </trkpt>
      <trkpt lat="44.71354" lon="3.74426">
        <ele>1073</ele>
        <time>2013-05-21T12:37:05Z</time>
      </trkpt>
      <trkpt lat="44.71355" lon="3.74421">
        <ele>1073</ele>
        <time>2013-05-21T12:37:06Z</time>
      </trkpt>
      <trkpt lat="44.71402" lon="3.74324">
        <ele>1074</ele>
        <time>2013-05-21T12:38:28Z</time>
      </trkpt>
      <trkpt lat="44.71401" lon="3.7432">
        <ele>1074</ele>
        <time>2013-05-21T12:38:29Z</time>
      </trkpt>
      <trkpt lat="44.71358" lon="3.74219">
        <ele>1083</ele>
        <time>2013-05-21T12:40:00Z</time>
      </trkpt>
      <trkpt lat="44.71358" lon="3.74213">
        <ele>1084</ele>
        <time>2013-05-21T12:40:01Z</time>
      </trkpt>
      <trkpt lat="44.71347" lon="3.74097">
        <ele>1089</ele>
        <time>2013-05-21T12:40:45Z</time>
      </trkpt>
      <trkpt lat="44.7133" lon="3.74041">
        <ele>1091</ele>
        <time>2013-05-21T12:41:30Z</time>
      </trkpt>
      <trkpt lat="44.71328" lon="3.74038">
        <ele>1092</ele>
        <time>2013-05-21T12:41:31Z</time>
      </trkpt>
      <trkpt lat="44.71314" lon="3.73929">
        <ele>1096</ele>
        <time>2013-05-21T12:42:31Z</time>
      </trkpt>
      <trkpt lat="44.71315" lon="3.73925">
        <ele>1096</ele>
        <time>2013-05-21T12:42:32Z</time>
      </trkpt>
      <trkpt lat="44.71327" lon="3.73814">
        <ele>1106</ele>
        <time>2013-05-21T12:43:33Z</time>
      </trkpt>
      <trkpt lat="44.71326" lon="3.73809">
        <ele>1106</ele>
        <time>2013-05-21T12:43:34Z</time>
      </trkpt>
      <trkpt lat="44.71288" lon="3.73709">
        <ele>1113</ele>
        <time>2013-05-21T12:44:47Z</time>
      </trkpt>
      <trkpt lat="44.71288" lon="3.73704">
        <ele>1114</ele>
        <time>2013-05-21T12:44:48Z</time>
      </trkpt>
      <trkpt lat="44.71289" lon="3.73626">
        <ele>1116</ele>
        <time>2013-05-21T12:45:34Z</time>
      </trkpt>
      <trkpt lat="44.71296" lon="3.7357">
        <ele>1119</ele>
        <time>2013-05-21T12:46:03Z</time>
      </trkpt>
      <trkpt lat="44.71302" lon="3.73519">
        <ele>1122</ele>
        <time>2013-05-21T12:46:04Z</time>
      </trkpt>
      <trkpt lat="44.71311" lon="3.73453">
        <ele>1121</ele>
        <time>2013-05-21T12:46:26Z</time>
      </trkpt>
      <trkpt lat="44.71317" lon="3.73394">
        <ele>1123</ele>
        <time>2013-05-21T12:46:36Z</time>
      </trkpt>
      <trkpt lat="44.7132" lon="3.73335">
        <ele>1122</ele>
        <time>2013-05-21T12:46:45Z</time>
      </trkpt>
      <trkpt lat="44.71324" lon="3.73276">
        <ele>1123</ele>
        <time>2013-05-21T12:46:53Z</time>
      </trkpt>
      <trkpt lat="44.71321" lon="3.73214">
        <ele>1126</ele>
        <time>2013-05-21T12:47:03Z</time>
      </trkpt>
      <trkpt lat="44.71325" lon="3.73153">
        <ele>1126</ele>
        <time>2013-05-21T12:47:43Z</time>
      </trkpt>
      <trkpt lat="44.71326" lon="3.73149">
        <ele>1125</ele>
        <time>2013-05-21T12:47:44Z</time>
      </trkpt>
      <trkpt lat="44.71338" lon="3.73034">
        <ele>1125</ele>
        <time>2013-05-21T12:48:50Z</time>
      </trkpt>
      <trkpt lat="44.71338" lon="3.73029">
        <ele>1125</ele>
        <time>2013-05-21T12:48:51Z</time>
      </trkpt>
      <trkpt lat="44.71273" lon="3.72979">
        <ele>1134</ele>
        <time>2013-05-21T12:50:10Z</time>
      </trkpt>
      <trkpt lat="44.71271" lon="3.72982">
        <ele>1135</ele>
        <time>2013-05-21T12:50:11Z</time>
      </trkpt>
      <trkpt lat="44.712" lon="3.73039">
        <ele>1135</ele>
        <time>2013-05-21T12:51:43Z</time>
      </trkpt>
      <trkpt lat="44.71197" lon="3.73038">
        <ele>1135</ele>
        <time>2013-05-21T12:51:44Z</time>
      </trkpt>
      <trkpt lat="44.71112" lon="3.73017">
        <ele>1135</ele>
        <time>2013-05-21T12:53:04Z</time>
      </trkpt>
      <trkpt lat="44.71111" lon="3.73016">
        <ele>1135</ele>
        <time>2013-05-21T12:53:05Z</time>
      </trkpt>
      <trkpt lat="44.71079" lon="3.72969">
        <ele>1133</ele>
        <time>2013-05-21T12:56:28Z</time>
      </trkpt>
      <trkpt lat="44.71052" lon="3.72861">
        <ele>1136</ele>
        <time>2013-05-21T12:57:38Z</time>
      </trkpt>
      <trkpt lat="44.71052" lon="3.72856">
        <ele>1136</ele>
        <time>2013-05-21T12:57:39Z</time>
      </trkpt>
      <trkpt lat="44.71044" lon="3.72739">
        <ele>1137</ele>
        <time>2013-05-21T12:58:26Z</time>
      </trkpt>
      <trkpt lat="44.71018" lon="3.72689">
        <ele>1139</ele>
        <time>2013-05-21T12:58:51Z</time>
      </trkpt>
      <trkpt lat="44.71017" lon="3.72687">
        <ele>1139</ele>
        <time>2013-05-21T12:58:52Z</time>
      </trkpt>
      <trkpt lat="44.70955" lon="3.72604">
        <ele>1145</ele>
        <time>2013-05-21T13:00:13Z</time>
      </trkpt>
      <trkpt lat="44.70953" lon="3.726">
        <ele>1145</ele>
        <time>2013-05-21T13:00:14Z</time>
      </trkpt>
      <trkpt lat="44.70923" lon="3.72522">
        <ele>1149</ele>
        <time>2013-05-21T13:01:01Z</time>
      </trkpt>
      <trkpt lat="44.7091" lon="3.72463">
        <ele>1155</ele>
        <time>2013-05-21T13:01:06Z</time>
      </trkpt>
      <trkpt lat="44.70894" lon="3.72405">
        <ele>1160</ele>
        <time>2013-05-21T13:01:35Z</time>
      </trkpt>
      <trkpt lat="44.70894" lon="3.72402">
        <ele>1160</ele>
        <time>2013-05-21T13:01:36Z</time>
      </trkpt>
      <trkpt lat="44.70868" lon="3.72286">
        <ele>1156</ele>
        <time>2013-05-21T13:02:41Z</time>
      </trkpt>
      <trkpt lat="44.70867" lon="3.72285">
        <ele>1156</ele>
        <time>2013-05-21T13:02:42Z</time>
      </trkpt>
      <trkpt lat="44.70835" lon="3.72188">
        <ele>1153</ele>
        <time>2013-05-21T13:03:34Z</time>
      </trkpt>
      <trkpt lat="44.70834" lon="3.72145">
        <ele>1153</ele>
        <time>2013-05-21T13:04:14Z</time>
      </trkpt>
      <trkpt lat="44.70832" lon="3.72099">
        <ele>1151</ele>
        <time>2013-05-21T13:04:15Z</time>
      </trkpt>
      <trkpt lat="44.70844" lon="3.72026">
        <ele>1149</ele>
        <time>2013-05-21T13:05:03Z</time>
      </trkpt>
      <trkpt lat="44.70863" lon="3.71974">
        <ele>1148</ele>
        <time>2013-05-21T13:05:28Z</time>
      </trkpt>
      <trkpt lat="44.7087" lon="3.7195">
        <ele>1148</ele>
        <time>2013-05-21T13:05:29Z</time>
      </trkpt>
      <trkpt lat="44.70895" lon="3.719">
        <ele>1148</ele>
        <time>2013-05-21T13:05:57Z</time>
      </trkpt>
      <trkpt lat="44.70931" lon="3.71863">
        <ele>1145</ele>
        <time>2013-05-21T13:07:18Z</time>
      </trkpt>
      <trkpt lat="44.70933" lon="3.71861">
        <ele>1145</ele>
        <time>2013-05-21T13:07:19Z</time>
      </trkpt>
      <trkpt lat="44.71006" lon="3.71798">
        <ele>1141</ele>
        <time>2013-05-21T13:08:28Z</time>
      </trkpt>
      <trkpt lat="44.71035" lon="3.71767">
        <ele>1143</ele>
        <time>2013-05-21T13:08:29Z</time>
      </trkpt>
      <trkpt lat="44.71072" lon="3.71719">
        <ele>1145</ele>
        <time>2013-05-21T13:09:25Z</time>
      </trkpt>
      <trkpt lat="44.71086" lon="3.71659">
        <ele>1147</ele>
        <time>2013-05-21T13:10:10Z</time>
      </trkpt>
      <trkpt lat="44.71085" lon="3.71654">
        <ele>1147</ele>
        <time>2013-05-21T13:10:11Z</time>
      </trkpt>
      <trkpt lat="44.7107" lon="3.71541">
        <ele>1156</ele>
        <time>2013-05-21T13:11:13Z</time>
      </trkpt>
      <trkpt lat="44.71068" lon="3.71498">
        <ele>1161</ele>
        <time>2013-05-21T13:11:14Z</time>
      </trkpt>
      <trkpt lat="44.71055" lon="3.7142">
        <ele>1168</ele>
        <time>2013-05-21T13:12:16Z</time>
      </trkpt>
      <trkpt lat="44.7105" lon="3.7138">
        <ele>1170</ele>
        <time>2013-05-21T13:12:17Z</time>
      </trkpt>
      <trkpt lat="44.71041" lon="3.71317">
        <ele>1172</ele>
        <time>2013-05-21T13:16:11Z</time>
      </trkpt>
      <trkpt lat="44.71074" lon="3.7127">
        <ele>1176</ele>
        <time>2013-05-21T13:17:12Z</time>
      </trkpt>
      <trkpt lat="44.71077" lon="3.71268">
        <ele>1176</ele>
        <time>2013-05-21T13:17:13Z</time>
      </trkpt>
      <trkpt lat="44.71143" lon="3.71234">
        <ele>1171</ele>
        <time>2013-05-21T13:18:00Z</time>
      </trkpt>
      <trkpt lat="44.71175" lon="3.71193">
        <ele>1171</ele>
        <time>2013-05-21T13:18:17Z</time>
      </trkpt>
      <trkpt lat="44.71177" lon="3.71191">
        <ele>1171</ele>
        <time>2013-05-21T13:18:18Z</time>
      </trkpt>
      <trkpt lat="44.71255" lon="3.7115">
        <ele>1172</ele>
        <time>2013-05-21T13:19:17Z</time>
      </trkpt>
      <trkpt lat="44.71298" lon="3.71136">
        <ele>1171</ele>
        <time>2013-05-21T13:20:14Z</time>
      </trkpt>
      <trkpt lat="44.71298" lon="3.71132">
        <ele>1171</ele>
        <time>2013-05-21T13:20:15Z</time>
      </trkpt>
      <trkpt lat="44.71344" lon="3.71117">
        <ele>1172</ele>
        <time>2013-05-21T13:21:27Z</time>
      </trkpt>
      <trkpt lat="44.71356" lon="3.71011">
        <ele>1184</ele>
        <time>2013-05-21T13:22:55Z</time>
      </trkpt>
      <trkpt lat="44.71351" lon="3.70961">
        <ele>1192</ele>
        <time>2013-05-21T13:22:56Z</time>
      </trkpt>
      <trkpt lat="44.71342" lon="3.70894">
        <ele>1196</ele>
        <time>2013-05-21T13:23:30Z</time>
      </trkpt>
      <trkpt lat="44.71334" lon="3.70833">
        <ele>1200</ele>
        <time>2013-05-21T13:23:50Z</time>
      </trkpt>
      <trkpt lat="44.7133" lon="3.70773">
        <ele>1203</ele>
        <time>2013-05-21T13:24:05Z</time>
      </trkpt>
      <trkpt lat="44.71329" lon="3.70769">
        <ele>1203</ele>
        <time>2013-05-21T13:24:06Z</time>
      </trkpt>
      <trkpt lat="44.7131" lon="3.70658">
        <ele>1211</ele>
        <time>2013-05-21T13:24:33Z</time>
      </trkpt>
      <trkpt lat="44.71297" lon="3.706">
        <ele>1210</ele>
        <time>2013-05-21T13:25:21Z</time>
      </trkpt>
      <trkpt lat="44.71296" lon="3.70595">
        <ele>1210</ele>
        <time>2013-05-21T13:25:22Z</time>
      </trkpt>
      <trkpt lat="44.71277" lon="3.70485">
        <ele>1213</ele>
        <time>2013-05-21T13:25:59Z</time>
      </trkpt>
      <trkpt lat="44.71271" lon="3.70454">
        <ele>1214</ele>
        <time>2013-05-21T13:26:21Z</time>
      </trkpt>
      <trkpt lat="44.7127" lon="3.70418">
        <ele>1215</ele>
        <time>2013-05-21T13:26:22Z</time>
      </trkpt>
      <trkpt lat="44.71271" lon="3.70335">
        <ele>1217</ele>
        <time>2013-05-21T13:26:44Z</time>
      </trkpt>
      <trkpt lat="44.71284" lon="3.70278">
        <ele>1217</ele>
        <time>2013-05-21T13:26:53Z</time>
      </trkpt>
      <trkpt lat="44.71296" lon="3.70218">
        <ele>1218</ele>
        <time>2013-05-21T13:27:05Z</time>
      </trkpt>
      <trkpt lat="44.71313" lon="3.70162">
        <ele>1216</ele>
        <time>2013-05-21T13:27:57Z</time>
      </trkpt>
      <trkpt lat="44.71315" lon="3.70157">
        <ele>1216</ele>
        <time>2013-05-21T13:27:58Z</time>
      </trkpt>
      <trkpt lat="44.71338" lon="3.70045">
        <ele>1208</ele>
        <time>2013-05-21T13:28:31Z</time>
      </trkpt>
      <trkpt lat="44.71331" lon="3.69983">
        <ele>1206</ele>
        <time>2013-05-21T13:29:07Z</time>
      </trkpt>
      <trkpt lat="44.71329" lon="3.69982">
        <ele>1206</ele>
        <time>2013-05-21T13:29:08Z</time>
      </trkpt>
      <trkpt lat="44.71243" lon="3.69966">
        <ele>1211</ele>
        <time>2013-05-21T13:30:07Z</time>
      </trkpt>
      <trkpt lat="44.71202" lon="3.6996">
        <ele>1211</ele>
        <time>2013-05-21T13:30:53Z</time>
      </trkpt>
      <trkpt lat="44.71198" lon="3.6996">
        <ele>1211</ele>
        <time>2013-05-21T13:30:54Z</time>
      </trkpt>
      <trkpt lat="44.71115" lon="3.6995">
        <ele>1212</ele>
        <time>2013-05-21T13:32:04Z</time>
      </trkpt>
      <trkpt lat="44.71111" lon="3.69949">
        <ele>1212</ele>
        <time>2013-05-21T13:32:05Z</time>
      </trkpt>
      <trkpt lat="44.71028" lon="3.69939">
        <ele>1214</ele>
        <time>2013-05-21T13:32:50Z</time>
      </trkpt>
      <trkpt lat="44.70985" lon="3.69929">
        <ele>1215</ele>
        <time>2013-05-21T13:33:06Z</time>
      </trkpt>
      <trkpt lat="44.70983" lon="3.69927">
        <ele>1216</ele>
        <time>2013-05-21T13:33:07Z</time>
      </trkpt>
      <trkpt lat="44.70932" lon="3.69868">
        <ele>1219</ele>
        <time>2013-05-21T13:34:19Z</time>
      </trkpt>
      <trkpt lat="44.70903" lon="3.69838">
        <ele>1222</ele>
        <time>2013-05-21T13:34:20Z</time>
      </trkpt>
      <trkpt lat="44.70855" lon="3.69814">
        <ele>1225</ele>
        <time>2013-05-21T13:35:21Z</time>
      </trkpt>
      <trkpt lat="44.70826" lon="3.69793">
        <ele>1226</ele>
        <time>2013-05-21T13:35:22Z</time>
      </trkpt>
      <trkpt lat="44.70779" lon="3.6975">
        <ele>1227</ele>
        <time>2013-05-21T13:36:05Z</time>
      </trkpt>
      <trkpt lat="44.70762" lon="3.69735">
        <ele>1227</ele>
        <time>2013-05-21T13:36:36Z</time>
      </trkpt>
      <trkpt lat="44.7073" lon="3.6971">
        <ele>1228</ele>
        <time>2013-05-21T13:36:37Z</time>
      </trkpt>
      <trkpt lat="44.70688" lon="3.69678">
        <ele>1228</ele>
        <time>2013-05-21T13:37:53Z</time>
      </trkpt>
      <trkpt lat="44.70658" lon="3.69651">
        <ele>1231</ele>
        <time>2013-05-21T13:37:54Z</time>
      </trkpt>
      <trkpt lat="44.70623" lon="3.69611">
        <ele>1232</ele>
        <time>2013-05-21T13:41:11Z</time>
      </trkpt>
      <trkpt lat="44.70598" lon="3.69574">
        <ele>1233</ele>
        <time>2013-05-21T13:41:12Z</time>
      </trkpt>
      <trkpt lat="44.70557" lon="3.6953">
        <ele>1236</ele>
        <time>2013-05-21T13:41:50Z</time>
      </trkpt>
      <trkpt lat="44.70542" lon="3.69523">
        <ele>1236</ele>
        <time>2013-05-21T13:42:28Z</time>
      </trkpt>
      <trkpt lat="44.70507" lon="3.69505">
        <ele>1235</ele>
        <time>2013-05-21T13:42:29Z</time>
      </trkpt>
      <trkpt lat="44.70467" lon="3.69477">
        <ele>1236</ele>
        <time>2013-05-21T13:43:52Z</time>
      </trkpt>
      <trkpt lat="44.70437" lon="3.69445">
        <ele>1238</ele>
        <time>2013-05-21T13:43:53Z</time>
      </trkpt>
      <trkpt lat="44.70409" lon="3.69394">
        <ele>1240</ele>
        <time>2013-05-21T13:44:51Z</time>
      </trkpt>
      <trkpt lat="44.70385" lon="3.69356">
        <ele>1241</ele>
        <time>2013-05-21T13:45:25Z</time>
      </trkpt>
      <trkpt lat="44.7036" lon="3.69318">
        <ele>1242</ele>
        <time>2013-05-21T13:45:26Z</time>
      </trkpt>
      <trkpt lat="44.70321" lon="3.69272">
        <ele>1241</ele>
        <time>2013-05-21T13:45:59Z</time>
      </trkpt>
      <trkpt lat="44.70286" lon="3.69235">
        <ele>1242</ele>
        <time>2013-05-21T13:46:28Z</time>
      </trkpt>
      <trkpt lat="44.70284" lon="3.69234">
        <ele>1242</ele>
        <time>2013-05-21T13:46:29Z</time>
      </trkpt>
      <trkpt lat="44.70217" lon="3.69205">
        <ele>1244</ele>
        <time>2013-05-21T13:47:33Z</time>
      </trkpt>
      <trkpt lat="44.70195" lon="3.69189">
        <ele>1244</ele>
        <time>2013-05-21T13:47:34Z</time>
      </trkpt>
      <trkpt lat="44.70155" lon="3.69149">
        <ele>1242</ele>
        <time>2013-05-21T13:48:36Z</time>
      </trkpt>
      <trkpt lat="44.70119" lon="3.69147">
        <ele>1239</ele>
        <time>2013-05-21T13:48:37Z</time>
      </trkpt>
      <trkpt lat="44.70067" lon="3.69153">
        <ele>1246</ele>
        <time>2013-05-21T13:50:35Z</time>
      </trkpt>
      <trkpt lat="44.70045" lon="3.69111">
        <ele>1248</ele>
        <time>2013-05-21T13:50:36Z</time>
      </trkpt>
      <trkpt lat="44.70014" lon="3.69063">
        <ele>1251</ele>
        <time>2013-05-21T13:52:12Z</time>
      </trkpt>
      <trkpt lat="44.70011" lon="3.69059">
        <ele>1251</ele>
        <time>2013-05-21T13:52:13Z</time>
      </trkpt>
      <trkpt lat="44.69975" lon="3.69017">
        <ele>1254</ele>
        <time>2013-05-21T13:52:54Z</time>
      </trkpt>
      <trkpt lat="44.69936" lon="3.68999">
        <ele>1255</ele>
        <time>2013-05-21T13:53:25Z</time>
      </trkpt>
      <trkpt lat="44.69901" lon="3.68984">
        <ele>1257</ele>
        <time>2013-05-21T13:53:26Z</time>
      </trkpt>
      <trkpt lat="44.69855" lon="3.6895">
        <ele>1264</ele>
        <time>2013-05-21T13:54:07Z</time>
      </trkpt>
      <trkpt lat="44.69819" lon="3.6892">
        <ele>1269</ele>
        <time>2013-05-21T13:55:10Z</time>
      </trkpt>
      <trkpt lat="44.69789" lon="3.68891">
        <ele>1274</ele>
        <time>2013-05-21T13:55:11Z</time>
      </trkpt>
      <trkpt lat="44.69753" lon="3.68856">
        <ele>1278</ele>
        <time>2013-05-21T13:56:16Z</time>
      </trkpt>
      <trkpt lat="44.69729" lon="3.68818">
        <ele>1281</ele>
        <time>2013-05-21T13:56:17Z</time>
      </trkpt>
      <trkpt lat="44.69698" lon="3.68775">
        <ele>1283</ele>
        <time>2013-05-21T13:57:24Z</time>
      </trkpt>
      <trkpt lat="44.69667" lon="3.6875">
        <ele>1280</ele>
        <time>2013-05-21T13:57:25Z</time>
      </trkpt>
      <trkpt lat="44.69627" lon="3.68724">
        <ele>1278</ele>
        <time>2013-05-21T13:58:11Z</time>
      </trkpt>
      <trkpt lat="44.69585" lon="3.68705">
        <ele>1273</ele>
        <time>2013-05-21T13:58:29Z</time>
      </trkpt>
      <trkpt lat="44.69584" lon="3.68704">
        <ele>1272</ele>
        <time>2013-05-21T13:58:30Z</time>
      </trkpt>
      <trkpt lat="44.69499" lon="3.68679">
        <ele>1268</ele>
        <time>2013-05-21T13:59:17Z</time>
      </trkpt>
      <trkpt lat="44.69455" lon="3.68675">
        <ele>1265</ele>
        <time>2013-05-21T14:00:14Z</time>
      </trkpt>
      <trkpt lat="44.69452" lon="3.68675">
        <ele>1264</ele>
        <time>2013-05-21T14:00:15Z</time>
      </trkpt>
      <trkpt lat="44.69367" lon="3.68667">
        <ele>1257</ele>
        <time>2013-05-21T14:01:01Z</time>
      </trkpt>
      <trkpt lat="44.6935" lon="3.68668">
        <ele>1257</ele>
        <time>2013-05-21T14:01:33Z</time>
      </trkpt>
      <trkpt lat="44.69313" lon="3.68671">
        <ele>1256</ele>
        <time>2013-05-21T14:01:34Z</time>
      </trkpt>
      <trkpt lat="44.69262" lon="3.68673">
        <ele>1255</ele>
        <time>2013-05-21T14:02:10Z</time>
      </trkpt>
      <trkpt lat="44.69218" lon="3.68679">
        <ele>1253</ele>
        <time>2013-05-21T14:02:41Z</time>
      </trkpt>
      <trkpt lat="44.69217" lon="3.68679">
        <ele>1253</ele>
        <time>2013-05-21T14:02:42Z</time>
      </trkpt>
      <trkpt lat="44.69139" lon="3.68701">
        <ele>1248</ele>
        <time>2013-05-21T14:06:13Z</time>
      </trkpt>
      <trkpt lat="44.69135" lon="3.68701">
        <ele>1248</ele>
        <time>2013-05-21T14:06:14Z</time>
      </trkpt>
      <trkpt lat="44.69061" lon="3.68668">
        <ele>1239</ele>
        <time>2013-05-21T14:07:15Z</time>
      </trkpt>
      <trkpt lat="44.69027" lon="3.68651">
        <ele>1240</ele>
        <time>2013-05-21T14:07:16Z</time>
      </trkpt>
      <trkpt lat="44.69001" lon="3.68639">
        <ele>1243</ele>
        <time>2013-05-21T14:08:04Z</time>
      </trkpt>
      <trkpt lat="44.68968" lon="3.68607">
        <ele>1246</ele>
        <time>2013-05-21T14:08:29Z</time>
      </trkpt>
      <trkpt lat="44.68949" lon="3.68573">
        <ele>1248</ele>
        <time>2013-05-21T14:08:30Z</time>
      </trkpt>
      <trkpt lat="44.68898" lon="3.68597">
        <ele>1250</ele>
        <time>2013-05-21T14:09:16Z</time>
      </trkpt>
      <trkpt lat="44.68865" lon="3.68632">
        <ele>1253</ele>
        <time>2013-05-21T14:09:54Z</time>
      </trkpt>
      <trkpt lat="44.68862" lon="3.68635">
        <ele>1253</ele>
        <time>2013-05-21T14:09:55Z</time>
      </trkpt>
      <trkpt lat="44.68793" lon="3.68697">
        <ele>1257</ele>
        <time>2013-05-21T14:10:59Z</time>
      </trkpt>
      <trkpt lat="44.6879" lon="3.68701">
        <ele>1258</ele>
        <time>2013-05-21T14:11:00Z</time>
      </trkpt>
      <trkpt lat="44.6872" lon="3.68767">
        <ele>1270</ele>
        <time>2013-05-21T14:12:02Z</time>
      </trkpt>
      <trkpt lat="44.68717" lon="3.68768">
        <ele>1270</ele>
        <time>2013-05-21T14:12:03Z</time>
      </trkpt>
      <trkpt lat="44.68647" lon="3.68718">
        <ele>1268</ele>
        <time>2013-05-21T14:13:15Z</time>
      </trkpt>
      <trkpt lat="44.68645" lon="3.68714">
        <ele>1268</ele>
        <time>2013-05-21T14:13:16Z</time>
      </trkpt>
      <trkpt lat="44.68583" lon="3.6864">
        <ele>1268</ele>
        <time>2013-05-21T14:14:01Z</time>
      </trkpt>
      <trkpt lat="44.68547" lon="3.68603">
        <ele>1268</ele>
        <time>2013-05-21T14:14:21Z</time>
      </trkpt>
      <trkpt lat="44.68546" lon="3.68601">
        <ele>1268</ele>
        <time>2013-05-21T14:14:22Z</time>
      </trkpt>
      <trkpt lat="44.68497" lon="3.68504">
        <ele>1261</ele>
        <time>2013-05-21T14:15:41Z</time>
      </trkpt>
      <trkpt lat="44.68497" lon="3.685">
        <ele>1260</ele>
        <time>2013-05-21T14:15:42Z</time>
      </trkpt>
      <trkpt lat="44.68523" lon="3.6839">
        <ele>1247</ele>
        <time>2013-05-21T14:16:50Z</time>
      </trkpt>
      <trkpt lat="44.68525" lon="3.68385">
        <ele>1246</ele>
        <time>2013-05-21T14:16:51Z</time>
      </trkpt>
      <trkpt lat="44.68563" lon="3.68285">
        <ele>1239</ele>
        <time>2013-05-21T14:17:53Z</time>
      </trkpt>
      <trkpt lat="44.68562" lon="3.6828">
        <ele>1240</ele>
        <time>2013-05-21T14:17:54Z</time>
      </trkpt>
      <trkpt lat="44.68536" lon="3.68168">
        <ele>1239</ele>
        <time>2013-05-21T14:20:04Z</time>
      </trkpt>
      <trkpt lat="44.68534" lon="3.68163">
        <ele>1240</ele>
        <time>2013-05-21T14:20:05Z</time>
      </trkpt>
      <trkpt lat="44.68493" lon="3.68061">
        <ele>1243</ele>
        <time>2013-05-21T14:21:04Z</time>
      </trkpt>
      <trkpt lat="44.68485" lon="3.68001">
        <ele>1239</ele>
        <time>2013-05-21T14:21:45Z</time>
      </trkpt>
      <trkpt lat="44.68485" lon="3.67997">
        <ele>1239</ele>
        <time>2013-05-21T14:21:46Z</time>
      </trkpt>
      <trkpt lat="44.68487" lon="3.67912">
        <ele>1235</ele>
        <time>2013-05-21T14:24:07Z</time>
      </trkpt>
      <trkpt lat="44.6849" lon="3.67878">
        <ele>1234</ele>
        <time>2013-05-21T14:24:48Z</time>
      </trkpt>
      <trkpt lat="44.68496" lon="3.67821">
        <ele>1230</ele>
        <time>2013-05-21T14:25:01Z</time>
      </trkpt>
      <trkpt lat="44.685" lon="3.67788">
        <ele>1228</ele>
        <time>2013-05-21T14:25:35Z</time>
      </trkpt>
      <trkpt lat="44.68504" lon="3.67737">
        <ele>1224</ele>
        <time>2013-05-21T14:25:36Z</time>
      </trkpt>
      <trkpt lat="44.68509" lon="3.67672">
        <ele>1221</ele>
        <time>2013-05-21T14:26:27Z</time>
      </trkpt>
      <trkpt lat="44.68481" lon="3.67624">
        <ele>1216</ele>
        <time>2013-05-21T14:26:43Z</time>
      </trkpt>
      <trkpt lat="44.68478" lon="3.67621">
        <ele>1216</ele>
        <time>2013-05-21T14:26:44Z</time>
      </trkpt>
      <trkpt lat="44.68399" lon="3.67592">
        <ele>1221</ele>
        <time>2013-05-21T14:28:00Z</time>
      </trkpt>
      <trkpt lat="44.68396" lon="3.67591">
        <ele>1222</ele>
        <time>2013-05-21T14:28:01Z</time>
      </trkpt>
      <trkpt lat="44.68318" lon="3.67545">
        <ele>1227</ele>
        <time>2013-05-21T14:28:45Z</time>
      </trkpt>
      <trkpt lat="44.68287" lon="3.67511">
        <ele>1228</ele>
        <time>2013-05-21T14:29:33Z</time>
      </trkpt>
      <trkpt lat="44.6826" lon="3.6749">
        <ele>1230</ele>
        <time>2013-05-21T14:29:34Z</time>
      </trkpt>
      <trkpt lat="44.68214" lon="3.67524">
        <ele>1232</ele>
        <time>2013-05-21T14:31:03Z</time>
      </trkpt>
      <trkpt lat="44.68213" lon="3.67526">
        <ele>1232</ele>
        <time>2013-05-21T14:31:04Z</time>
      </trkpt>
      <trkpt lat="44.68146" lon="3.676">
        <ele>1235</ele>
        <time>2013-05-21T14:32:22Z</time>
      </trkpt>
      <trkpt lat="44.68144" lon="3.67603">
        <ele>1235</ele>
        <time>2013-05-21T14:32:23Z</time>
      </trkpt>
      <trkpt lat="44.68061" lon="3.67634">
        <ele>1240</ele>
        <time>2013-05-21T14:33:16Z</time>
      </trkpt>
      <trkpt lat="44.68018" lon="3.67644">
        <ele>1243</ele>
        <time>2013-05-21T14:33:42Z</time>
      </trkpt>
      <trkpt lat="44.68017" lon="3.67644">
        <ele>1243</ele>
        <time>2013-05-21T14:33:43Z</time>
      </trkpt>
      <trkpt lat="44.67969" lon="3.67646">
        <ele>1244</ele>
        <time>2013-05-21T14:35:04Z</time>
      </trkpt>
      <trkpt lat="44.67895" lon="3.67595">
        <ele>1250</ele>
        <time>2013-05-21T14:36:00Z</time>
      </trkpt>
      <trkpt lat="44.67852" lon="3.67596">
        <ele>1250</ele>
        <time>2013-05-21T14:36:43Z</time>
      </trkpt>
      <trkpt lat="44.67849" lon="3.67597">
        <ele>1251</ele>
        <time>2013-05-21T14:36:44Z</time>
      </trkpt>
      <trkpt lat="44.67768" lon="3.67628">
        <ele>1251</ele>
        <time>2013-05-21T14:37:50Z</time>
      </trkpt>
      <trkpt lat="44.67765" lon="3.67629">
        <ele>1251</ele>
        <time>2013-05-21T14:37:51Z</time>
      </trkpt>
      <trkpt lat="44.67686" lon="3.67597">
        <ele>1254</ele>
        <time>2013-05-21T14:39:07Z</time>
      </trkpt>
      <trkpt lat="44.67683" lon="3.67594">
        <ele>1254</ele>
        <time>2013-05-21T14:39:08Z</time>
      </trkpt>
      <trkpt lat="44.67614" lon="3.67535">
        <ele>1248</ele>
        <time>2013-05-21T14:39:59Z</time>
      </trkpt>
      <trkpt lat="44.67577" lon="3.67502">
        <ele>1248</ele>
        <time>2013-05-21T14:40:51Z</time>
      </trkpt>
      <trkpt lat="44.67574" lon="3.67499">
        <ele>1248</ele>
        <time>2013-05-21T14:40:52Z</time>
      </trkpt>
      <trkpt lat="44.67506" lon="3.6749">
        <ele>1249</ele>
        <time>2013-05-21T14:45:39Z</time>
      </trkpt>
      <trkpt lat="44.67464" lon="3.67508">
        <ele>1250</ele>
        <time>2013-05-21T14:46:43Z</time>
      </trkpt>
      <trkpt lat="44.67428" lon="3.67517">
        <ele>1253</ele>
        <time>2013-05-21T14:46:44Z</time>
      </trkpt>
      <trkpt lat="44.67383" lon="3.67521">
        <ele>1254</ele>
        <time>2013-05-21T14:47:47Z</time>
      </trkpt>
      <trkpt lat="44.67346" lon="3.67524">
        <ele>1255</ele>
        <time>2013-05-21T14:47:48Z</time>
      </trkpt>
      <trkpt lat="44.67302" lon="3.67528">
        <ele>1256</ele>
        <time>2013-05-21T14:48:52Z</time>
      </trkpt>
      <trkpt lat="44.67266" lon="3.67531">
        <ele>1258</ele>
        <time>2013-05-21T14:48:53Z</time>
      </trkpt>
      <trkpt lat="44.67235" lon="3.67537">
        <ele>1255</ele>
        <time>2013-05-21T14:51:14Z</time>
      </trkpt>
      <trkpt lat="44.67199" lon="3.67548">
        <ele>1256</ele>
        <time>2013-05-21T14:51:15Z</time>
      </trkpt>
      <trkpt lat="44.67158" lon="3.67575">
        <ele>1254</ele>
        <time>2013-05-21T14:52:17Z</time>
      </trkpt>
      <trkpt lat="44.67134" lon="3.67614">
        <ele>1254</ele>
        <time>2013-05-21T14:52:18Z</time>
      </trkpt>
      <trkpt lat="44.67106" lon="3.67661">
        <ele>1254</ele>
        <time>2013-05-21T14:53:20Z</time>
      </trkpt>
      <trkpt lat="44.67078" lon="3.67694">
        <ele>1255</ele>
        <time>2013-05-21T14:53:21Z</time>
      </trkpt>
      <trkpt lat="44.67055" lon="3.67717">
        <ele>1256</ele>
        <time>2013-05-21T14:54:08Z</time>
      </trkpt>
      <trkpt lat="44.6702" lon="3.67744">
        <ele>1258</ele>
        <time>2013-05-21T14:55:45Z</time>
      </trkpt>
      <trkpt lat="44.66987" lon="3.67762">
        <ele>1264</ele>
        <time>2013-05-21T14:55:46Z</time>
      </trkpt>
      <trkpt lat="44.66942" lon="3.67772">
        <ele>1264</ele>
        <time>2013-05-21T14:56:27Z</time>
      </trkpt>
      <trkpt lat="44.66927" lon="3.67777">
        <ele>1265</ele>
        <time>2013-05-21T14:57:03Z</time>
      </trkpt>
      <trkpt lat="44.66892" lon="3.67788">
        <ele>1264</ele>
        <time>2013-05-21T14:57:04Z</time>
      </trkpt>
      <trkpt lat="44.66843" lon="3.67804">
        <ele>1267</ele>
        <time>2013-05-21T14:57:39Z</time>
      </trkpt>
      <trkpt lat="44.668" lon="3.6781">
        <ele>1267</ele>
        <time>2013-05-21T14:58:12Z</time>
      </trkpt>
      <trkpt lat="44.66799" lon="3.6781">
        <ele>1267</ele>
        <time>2013-05-21T14:58:13Z</time>
      </trkpt>
      <trkpt lat="44.66746" lon="3.67803">
        <ele>1267</ele>
        <time>2013-05-21T14:59:21Z</time>
      </trkpt>
      <trkpt lat="44.66711" lon="3.67784">
        <ele>1265</ele>
        <time>2013-05-21T14:59:22Z</time>
      </trkpt>
      <trkpt lat="44.66667" lon="3.67756">
        <ele>1262</ele>
        <time>2013-05-21T14:59:59Z</time>
      </trkpt>
      <trkpt lat="44.66626" lon="3.6773">
        <ele>1260</ele>
        <time>2013-05-21T15:00:30Z</time>
      </trkpt>
      <trkpt lat="44.66625" lon="3.67729">
        <ele>1260</ele>
        <time>2013-05-21T15:00:31Z</time>
      </trkpt>
      <trkpt lat="44.66541" lon="3.677">
        <ele>1255</ele>
        <time>2013-05-21T15:01:56Z</time>
      </trkpt>
      <trkpt lat="44.66537" lon="3.67699">
        <ele>1254</ele>
        <time>2013-05-21T15:01:57Z</time>
      </trkpt>
      <trkpt lat="44.66455" lon="3.67686">
        <ele>1245</ele>
        <time>2013-05-21T15:02:57Z</time>
      </trkpt>
      <trkpt lat="44.66451" lon="3.67686">
        <ele>1245</ele>
        <time>2013-05-21T15:02:58Z</time>
      </trkpt>
      <trkpt lat="44.66368" lon="3.67685">
        <ele>1244</ele>
        <time>2013-05-21T15:03:43Z</time>
      </trkpt>
      <trkpt lat="44.66345" lon="3.67685">
        <ele>1249</ele>
        <time>2013-05-21T15:04:14Z</time>
      </trkpt>
      <trkpt lat="44.66311" lon="3.67705">
        <ele>1242</ele>
        <time>2013-05-21T15:04:15Z</time>
      </trkpt>
      <trkpt lat="44.66269" lon="3.67738">
        <ele>1236</ele>
        <time>2013-05-21T15:05:11Z</time>
      </trkpt>
      <trkpt lat="44.66241" lon="3.67783">
        <ele>1233</ele>
        <time>2013-05-21T15:05:36Z</time>
      </trkpt>
      <trkpt lat="44.6624" lon="3.67786">
        <ele>1233</ele>
        <time>2013-05-21T15:05:37Z</time>
      </trkpt>
      <trkpt lat="44.66175" lon="3.67829">
        <ele>1225</ele>
        <time>2013-05-21T15:06:49Z</time>
      </trkpt>
      <trkpt lat="44.66172" lon="3.67827">
        <ele>1225</ele>
        <time>2013-05-21T15:06:50Z</time>
      </trkpt>
      <trkpt lat="44.66092" lon="3.67795">
        <ele>1218</ele>
        <time>2013-05-21T15:07:58Z</time>
      </trkpt>
      <trkpt lat="44.66088" lon="3.67794">
        <ele>1218</ele>
        <time>2013-05-21T15:07:59Z</time>
      </trkpt>
      <trkpt lat="44.66021" lon="3.67756">
        <ele>1214</ele>
        <time>2013-05-21T15:08:34Z</time>
      </trkpt>
      <trkpt lat="44.65984" lon="3.67721">
        <ele>1209</ele>
        <time>2013-05-21T15:09:06Z</time>
      </trkpt>
      <trkpt lat="44.65983" lon="3.6772">
        <ele>1209</ele>
        <time>2013-05-21T15:09:07Z</time>
      </trkpt>
      <trkpt lat="44.65904" lon="3.67747">
        <ele>1206</ele>
        <time>2013-05-21T15:10:07Z</time>
      </trkpt>
      <trkpt lat="44.65902" lon="3.67749">
        <ele>1206</ele>
        <time>2013-05-21T15:10:08Z</time>
      </trkpt>
      <trkpt lat="44.65827" lon="3.67805">
        <ele>1199</ele>
        <time>2013-05-21T15:11:01Z</time>
      </trkpt>
      <trkpt lat="44.65784" lon="3.67824">
        <ele>1196</ele>
        <time>2013-05-21T15:11:32Z</time>
      </trkpt>
      <trkpt lat="44.65783" lon="3.67824">
        <ele>1196</ele>
        <time>2013-05-21T15:11:33Z</time>
      </trkpt>
      <trkpt lat="44.65699" lon="3.67824">
        <ele>1188</ele>
        <time>2013-05-21T15:12:35Z</time>
      </trkpt>
      <trkpt lat="44.65698" lon="3.67823">
        <ele>1188</ele>
        <time>2013-05-21T15:12:36Z</time>
      </trkpt>
      <trkpt lat="44.65613" lon="3.67818">
        <ele>1182</ele>
        <time>2013-05-21T15:13:38Z</time>
      </trkpt>
      <trkpt lat="44.65611" lon="3.67818">
        <ele>1182</ele>
        <time>2013-05-21T15:13:39Z</time>
      </trkpt>
      <trkpt lat="44.65526" lon="3.67829">
        <ele>1175</ele>
        <time>2013-05-21T15:14:39Z</time>
      </trkpt>
      <trkpt lat="44.65524" lon="3.67829">
        <ele>1175</ele>
        <time>2013-05-21T15:14:40Z</time>
      </trkpt>
      <trkpt lat="44.65491" lon="3.67764">
        <ele>1170</ele>
        <time>2013-05-21T15:15:24Z</time>
      </trkpt>
      <trkpt lat="44.65474" lon="3.67707">
        <ele>1168</ele>
        <time>2013-05-21T15:15:56Z</time>
      </trkpt>
      <trkpt lat="44.65473" lon="3.67706">
        <ele>1168</ele>
        <time>2013-05-21T15:15:57Z</time>
      </trkpt>
      <trkpt lat="44.65408" lon="3.6769">
        <ele>1163</ele>
        <time>2013-05-21T15:17:10Z</time>
      </trkpt>
      <trkpt lat="44.65373" lon="3.67705">
        <ele>1160</ele>
        <time>2013-05-21T15:17:11Z</time>
      </trkpt>
      <trkpt lat="44.65328" lon="3.67729">
        <ele>1154</ele>
        <time>2013-05-21T15:18:12Z</time>
      </trkpt>
      <trkpt lat="44.65324" lon="3.67731">
        <ele>1154</ele>
        <time>2013-05-21T15:18:13Z</time>
      </trkpt>
      <trkpt lat="44.65259" lon="3.67747">
        <ele>1148</ele>
        <time>2013-05-21T15:21:42Z</time>
      </trkpt>
      <trkpt lat="44.65222" lon="3.67747">
        <ele>1148</ele>
        <time>2013-05-21T15:21:43Z</time>
      </trkpt>
      <trkpt lat="44.65179" lon="3.67718">
        <ele>1145</ele>
        <time>2013-05-21T15:22:22Z</time>
      </trkpt>
      <trkpt lat="44.65139" lon="3.67691">
        <ele>1146</ele>
        <time>2013-05-21T15:22:54Z</time>
      </trkpt>
      <trkpt lat="44.65137" lon="3.67691">
        <ele>1146</ele>
        <time>2013-05-21T15:22:55Z</time>
      </trkpt>
      <trkpt lat="44.6505" lon="3.67707">
        <ele>1151</ele>
        <time>2013-05-21T15:23:58Z</time>
      </trkpt>
      <trkpt lat="44.65048" lon="3.67707">
        <ele>1150</ele>
        <time>2013-05-21T15:23:59Z</time>
      </trkpt>
      <trkpt lat="44.64963" lon="3.67734">
        <ele>1154</ele>
        <time>2013-05-21T15:25:00Z</time>
      </trkpt>
      <trkpt lat="44.64961" lon="3.67734">
        <ele>1154</ele>
        <time>2013-05-21T15:25:01Z</time>
      </trkpt>
      <trkpt lat="44.64919" lon="3.677">
        <ele>1156</ele>
        <time>2013-05-21T15:26:20Z</time>
      </trkpt>
      <trkpt lat="44.64876" lon="3.67672">
        <ele>1160</ele>
        <time>2013-05-21T15:28:46Z</time>
      </trkpt>
      <trkpt lat="44.64872" lon="3.67671">
        <ele>1160</ele>
        <time>2013-05-21T15:28:47Z</time>
      </trkpt>
      <trkpt lat="44.64803" lon="3.67606">
        <ele>1168</ele>
        <time>2013-05-21T15:30:12Z</time>
      </trkpt>
      <trkpt lat="44.64802" lon="3.67601">
        <ele>1168</ele>
        <time>2013-05-21T15:30:13Z</time>
      </trkpt>
      <trkpt lat="44.64779" lon="3.67496">
        <ele>1182</ele>
        <time>2013-05-21T15:31:51Z</time>
      </trkpt>
      <trkpt lat="44.64776" lon="3.67497">
        <ele>1183</ele>
        <time>2013-05-21T15:31:52Z</time>
      </trkpt>
      <trkpt lat="44.64693" lon="3.67519">
        <ele>1196</ele>
        <time>2013-05-21T15:32:43Z</time>
      </trkpt>
      <trkpt lat="44.64651" lon="3.67542">
        <ele>1205</ele>
        <time>2013-05-21T15:33:34Z</time>
      </trkpt>
      <trkpt lat="44.64648" lon="3.67543">
        <ele>1206</ele>
        <time>2013-05-21T15:33:35Z</time>
      </trkpt>
      <trkpt lat="44.64569" lon="3.67579">
        <ele>1214</ele>
        <time>2013-05-21T15:34:43Z</time>
      </trkpt>
      <trkpt lat="44.64565" lon="3.67581">
        <ele>1215</ele>
        <time>2013-05-21T15:34:44Z</time>
      </trkpt>
      <trkpt lat="44.64483" lon="3.676">
        <ele>1222</ele>
        <time>2013-05-21T15:35:43Z</time>
      </trkpt>
      <trkpt lat="44.64441" lon="3.67611">
        <ele>1226</ele>
        <time>2013-05-21T15:35:57Z</time>
      </trkpt>
      <trkpt lat="44.64439" lon="3.67612">
        <ele>1226</ele>
        <time>2013-05-21T15:35:58Z</time>
      </trkpt>
      <trkpt lat="44.64358" lon="3.67644">
        <ele>1233</ele>
        <time>2013-05-21T15:37:12Z</time>
      </trkpt>
      <trkpt lat="44.64355" lon="3.67645">
        <ele>1233</ele>
        <time>2013-05-21T15:37:13Z</time>
      </trkpt>
      <trkpt lat="44.64275" lon="3.67681">
        <ele>1242</ele>
        <time>2013-05-21T15:38:17Z</time>
      </trkpt>
      <trkpt lat="44.64271" lon="3.67683">
        <ele>1242</ele>
        <time>2013-05-21T15:38:18Z</time>
      </trkpt>
      <trkpt lat="44.6423" lon="3.67701">
        <ele>1246</ele>
        <time>2013-05-21T15:39:23Z</time>
      </trkpt>
      <trkpt lat="44.64221" lon="3.67637">
        <ele>1253</ele>
        <time>2013-05-21T15:41:19Z</time>
      </trkpt>
      <trkpt lat="44.64211" lon="3.67549">
        <ele>1276</ele>
        <time>2013-05-21T15:43:13Z</time>
      </trkpt>
      <trkpt lat="44.64207" lon="3.6755">
        <ele>1276</ele>
        <time>2013-05-21T15:43:14Z</time>
      </trkpt>
      <trkpt lat="44.64125" lon="3.67554">
        <ele>1290</ele>
        <time>2013-05-21T15:45:13Z</time>
      </trkpt>
      <trkpt lat="44.64121" lon="3.67554">
        <ele>1291</ele>
        <time>2013-05-21T15:45:14Z</time>
      </trkpt>
      <trkpt lat="44.6404" lon="3.67529">
        <ele>1297</ele>
        <time>2013-05-21T15:46:26Z</time>
      </trkpt>
      <trkpt lat="44.64037" lon="3.67528">
        <ele>1297</ele>
        <time>2013-05-21T15:46:27Z</time>
      </trkpt>
      <trkpt lat="44.63957" lon="3.67544">
        <ele>1293</ele>
        <time>2013-05-21T15:48:26Z</time>
      </trkpt>
      <trkpt lat="44.63954" lon="3.67547">
        <ele>1292</ele>
        <time>2013-05-21T15:48:27Z</time>
      </trkpt>
      <trkpt lat="44.63886" lon="3.67616">
        <ele>1278</ele>
        <time>2013-05-21T15:49:36Z</time>
      </trkpt>
      <trkpt lat="44.63883" lon="3.67619">
        <ele>1278</ele>
        <time>2013-05-21T15:49:37Z</time>
      </trkpt>
      <trkpt lat="44.63809" lon="3.67671">
        <ele>1271</ele>
        <time>2013-05-21T15:50:48Z</time>
      </trkpt>
      <trkpt lat="44.63805" lon="3.67673">
        <ele>1271</ele>
        <time>2013-05-21T15:50:49Z</time>
      </trkpt>
      <trkpt lat="44.63735" lon="3.67738">
        <ele>1266</ele>
        <time>2013-05-21T15:51:51Z</time>
      </trkpt>
      <trkpt lat="44.63733" lon="3.67742">
        <ele>1265</ele>
        <time>2013-05-21T15:51:52Z</time>
      </trkpt>
      <trkpt lat="44.63749" lon="3.67851">
        <ele>1258</ele>
        <time>2013-05-21T15:53:14Z</time>
      </trkpt>
      <trkpt lat="44.63751" lon="3.67856">
        <ele>1258</ele>
        <time>2013-05-21T15:53:15Z</time>
      </trkpt>
      <trkpt lat="44.63771" lon="3.67964">
        <ele>1250</ele>
        <time>2013-05-21T15:54:21Z</time>
      </trkpt>
      <trkpt lat="44.63771" lon="3.6797">
        <ele>1250</ele>
        <time>2013-05-21T15:54:22Z</time>
      </trkpt>
      <trkpt lat="44.63774" lon="3.68088">
        <ele>1243</ele>
        <time>2013-05-21T15:55:23Z</time>
      </trkpt>
      <trkpt lat="44.63773" lon="3.68093">
        <ele>1242</ele>
        <time>2013-05-21T15:55:24Z</time>
      </trkpt>
      <trkpt lat="44.63724" lon="3.68185">
        <ele>1236</ele>
        <time>2013-05-21T15:56:39Z</time>
      </trkpt>
      <trkpt lat="44.63721" lon="3.68189">
        <ele>1236</ele>
        <time>2013-05-21T15:56:40Z</time>
      </trkpt>
      <trkpt lat="44.63644" lon="3.68223">
        <ele>1228</ele>
        <time>2013-05-21T15:58:02Z</time>
      </trkpt>
      <trkpt lat="44.63641" lon="3.68221">
        <ele>1228</ele>
        <time>2013-05-21T15:58:03Z</time>
      </trkpt>
      <trkpt lat="44.63597" lon="3.68127">
        <ele>1216</ele>
        <time>2013-05-21T15:59:19Z</time>
      </trkpt>
      <trkpt lat="44.63597" lon="3.68122">
        <ele>1215</ele>
        <time>2013-05-21T15:59:20Z</time>
      </trkpt>
      <trkpt lat="44.63579" lon="3.68008">
        <ele>1211</ele>
        <time>2013-05-21T16:00:37Z</time>
      </trkpt>
      <trkpt lat="44.63578" lon="3.68002">
        <ele>1211</ele>
        <time>2013-05-21T16:00:38Z</time>
      </trkpt>
      <trkpt lat="44.63545" lon="3.67896">
        <ele>1208</ele>
        <time>2013-05-21T16:01:55Z</time>
      </trkpt>
      <trkpt lat="44.63543" lon="3.67891">
        <ele>1208</ele>
        <time>2013-05-21T16:01:56Z</time>
      </trkpt>
      <trkpt lat="44.63503" lon="3.67791">
        <ele>1201</ele>
        <time>2013-05-21T16:02:53Z</time>
      </trkpt>
      <trkpt lat="44.63479" lon="3.67737">
        <ele>1198</ele>
        <time>2013-05-21T16:03:11Z</time>
      </trkpt>
      <trkpt lat="44.63478" lon="3.67735">
        <ele>1198</ele>
        <time>2013-05-21T16:03:12Z</time>
      </trkpt>
      <trkpt lat="44.63431" lon="3.67632">
        <ele>1191</ele>
        <time>2013-05-21T16:04:36Z</time>
      </trkpt>
      <trkpt lat="44.63429" lon="3.67627">
        <ele>1191</ele>
        <time>2013-05-21T16:04:37Z</time>
      </trkpt>
      <trkpt lat="44.63418" lon="3.67522">
        <ele>1190</ele>
        <time>2013-05-21T16:05:26Z</time>
      </trkpt>
      <trkpt lat="44.63414" lon="3.67494">
        <ele>1190</ele>
        <time>2013-05-21T16:14:15Z</time>
      </trkpt>
    </trkseg>
  </trk>
</gpx>